createdAt,value
2023-01-03T00:02:04.241Z,0.88
2023-01-03T00:04:30.981Z,0.75
2023-01-03T00:06:57.738Z,0.62
2023-01-03T00:09:25.270Z,0.53
2023-01-03T00:12:12.554Z,0.48
2023-01-03T00:14:41.764Z,0.42
2023-01-03T00:17:09.672Z,0.38
2023-01-03T00:19:40.325Z,0.39
2023-01-03T00:22:07.590Z,0.45
2023-01-03T00:24:34.697Z,0.53
2023-01-03T00:27:01.436Z,0.52
2023-01-03T00:29:28.314Z,0.49
2023-01-03T00:31:54.977Z,0.52
2023-01-03T00:34:21.915Z,0.46
2023-01-03T00:36:48.688Z,0.39
2023-01-03T00:39:15.423Z,0.34
2023-01-03T00:41:42.535Z,0.30
2023-01-03T00:44:09.796Z,0.33
2023-01-03T00:46:37.239Z,0.34
2023-01-03T00:49:04.755Z,0.30
2023-01-03T00:51:34.241Z,0.26
2023-01-03T00:54:03.315Z,0.20
2023-01-03T00:56:33.913Z,0.15
2023-01-03T00:59:00.953Z,0.18
2023-01-03T01:01:31.148Z,0.15
2023-01-03T01:04:09.791Z,0.12
2023-01-03T01:06:42.971Z,0.08
2023-01-03T01:09:13.271Z,0.09
2023-01-03T01:11:40.339Z,0.11
2023-01-03T01:14:19.995Z,0.10
2023-01-03T01:17:05.328Z,0.07
2023-01-03T01:19:35.795Z,0.12
2023-01-03T01:22:02.657Z,0.10
2023-01-03T01:24:29.660Z,0.04
2023-01-03T01:26:56.720Z,-0.01
2023-01-03T01:29:23.892Z,-0.03
2023-01-03T01:31:50.971Z,-0.01
2023-01-03T01:34:18.492Z,0.08
2023-01-03T01:36:46.254Z,0.16
2023-01-03T01:39:14.482Z,0.13
2023-01-03T01:42:02.467Z,0.07
2023-01-03T01:44:58.573Z,-0.04
2023-01-03T01:47:53.039Z,-0.05
2023-01-03T01:50:26.469Z,-0.06
2023-01-03T01:53:00.217Z,-0.08
2023-01-03T01:55:35.434Z,-0.08
2023-01-03T01:58:02.703Z,-0.07
2023-01-03T02:00:30.001Z,-0.11
2023-01-03T02:02:56.891Z,-0.15
2023-01-03T02:05:27.310Z,-0.16
2023-01-03T02:07:54.840Z,-0.18
2023-01-03T02:10:39.678Z,-0.13
2023-01-03T02:13:37.739Z,-0.10
2023-01-03T02:16:16.278Z,-0.11
2023-01-03T02:18:57.763Z,-0.16
2023-01-03T02:21:56.945Z,-0.21
2023-01-03T02:24:40.038Z,-0.21
2023-01-03T02:27:21.655Z,-0.23
2023-01-03T02:30:02.788Z,-0.23
2023-01-03T02:32:38.346Z,-0.25
2023-01-03T02:35:18.464Z,-0.27
2023-01-03T02:38:13.732Z,-0.27
2023-01-03T02:40:48.860Z,-0.27
2023-01-03T02:43:41.869Z,-0.26
2023-01-03T02:46:40.882Z,-0.28
2023-01-03T02:49:23.801Z,-0.29
2023-01-03T02:51:55.061Z,-0.29
2023-01-03T02:54:35.362Z,-0.31
2023-01-03T02:57:10.759Z,-0.31
2023-01-03T03:00:00.745Z,-0.31
2023-01-03T03:02:35.323Z,-0.32
2023-01-03T03:05:08.828Z,-0.33
2023-01-03T03:07:39.283Z,-0.35
2023-01-03T03:10:26.512Z,-0.37
2023-01-03T03:13:13.266Z,-0.38
2023-01-03T03:15:53.507Z,-0.38
2023-01-03T03:18:28.173Z,-0.41
2023-01-03T03:21:17.267Z,-0.42
2023-01-03T03:24:05.595Z,-0.42
2023-01-03T03:26:40.690Z,-0.44
2023-01-03T03:29:16.115Z,-0.41
2023-01-03T03:31:49.988Z,-0.40
2023-01-03T03:34:25.416Z,-0.38
2023-01-03T03:37:04.227Z,-0.37
2023-01-03T03:39:51.285Z,-0.40
2023-01-03T03:42:55.158Z,-0.43
2023-01-03T03:45:31.269Z,-0.45
2023-01-03T03:48:16.721Z,-0.46
2023-01-03T03:50:54.915Z,-0.46
2023-01-03T03:53:25.515Z,-0.45
2023-01-03T03:56:05.399Z,-0.42
2023-01-03T03:58:38.929Z,-0.38
2023-01-03T04:01:06.747Z,-0.39
2023-01-03T04:03:35.046Z,-0.40
2023-01-03T04:06:09.811Z,-0.41
2023-01-03T04:08:36.898Z,-0.40
2023-01-03T04:11:06.375Z,-0.38
2023-01-03T04:13:34.342Z,-0.38
2023-01-03T04:16:01.187Z,-0.39
2023-01-03T04:18:28.001Z,-0.41
2023-01-03T04:20:54.728Z,-0.40
2023-01-03T04:23:21.979Z,-0.41
2023-01-03T04:25:49.272Z,-0.40
2023-01-03T04:28:17.170Z,-0.39
2023-01-03T04:30:44.526Z,-0.40
2023-01-03T04:33:11.369Z,-0.37
2023-01-03T04:35:38.341Z,-0.37
2023-01-03T04:38:05.788Z,-0.35
2023-01-03T04:40:34.986Z,-0.34
2023-01-03T04:43:20.065Z,-0.34
2023-01-03T04:45:49.086Z,-0.32
2023-01-03T04:48:16.339Z,-0.30
2023-01-03T04:50:51.317Z,-0.30
2023-01-03T04:53:18.044Z,-0.29
2023-01-03T04:55:49.193Z,-0.27
2023-01-03T04:58:15.991Z,-0.29
2023-01-03T05:00:42.788Z,-0.27
2023-01-03T05:03:09.734Z,-0.22
2023-01-03T05:05:37.865Z,-0.20
2023-01-03T05:08:06.027Z,-0.18
2023-01-03T05:10:33.037Z,-0.20
2023-01-03T05:13:00.814Z,-0.21
2023-01-03T05:15:32.666Z,-0.21
2023-01-03T05:17:59.372Z,-0.25
2023-01-03T05:20:45.109Z,-0.28
2023-01-03T05:23:35.194Z,-0.30
2023-01-03T05:26:06.855Z,-0.32
2023-01-03T05:28:34.059Z,-0.33
2023-01-03T05:31:00.912Z,-0.34
2023-01-03T05:33:27.992Z,-0.34
2023-01-03T05:35:54.664Z,-0.36
2023-01-03T05:38:21.624Z,-0.34
2023-01-03T05:40:48.283Z,-0.32
2023-01-03T05:43:14.973Z,-0.33
2023-01-03T05:45:41.829Z,-0.32
2023-01-03T05:48:09.435Z,-0.29
2023-01-03T05:50:36.151Z,-0.27
2023-01-03T05:53:03.993Z,-0.29
2023-01-03T05:55:30.684Z,-0.25
2023-01-03T05:57:57.378Z,-0.25
2023-01-03T06:00:24.100Z,-0.27
2023-01-03T06:02:51.498Z,-0.29
2023-01-03T06:05:18.498Z,-0.28
2023-01-03T06:07:45.376Z,-0.29
2023-01-03T06:10:12.257Z,-0.33
2023-01-03T06:12:39.176Z,-0.36
2023-01-03T06:15:07.015Z,-0.49
2023-01-03T06:17:52.914Z,-0.41
2023-01-03T06:20:19.732Z,-0.40
2023-01-03T06:22:46.599Z,-0.39
2023-01-03T06:25:13.491Z,-0.44
2023-01-03T06:27:40.252Z,-0.44
2023-01-03T06:30:07.752Z,-0.41
2023-01-03T06:32:37.330Z,-0.44
2023-01-03T06:35:05.183Z,-0.40
2023-01-03T06:37:31.922Z,-0.40
2023-01-03T06:39:58.739Z,-0.43
2023-01-03T06:42:42.503Z,-0.44
2023-01-03T06:45:30.172Z,-0.44
2023-01-03T06:48:15.575Z,-0.47
2023-01-03T06:51:02.346Z,-0.50
2023-01-03T06:53:41.239Z,-0.47
2023-01-03T06:56:08.820Z,-0.45
2023-01-03T06:58:36.545Z,-0.51
2023-01-03T07:01:04.951Z,-0.50
2023-01-03T07:03:32.927Z,-0.50
2023-01-03T07:05:59.932Z,-0.50
2023-01-03T07:08:26.759Z,-0.47
2023-01-03T07:10:54.959Z,-0.47
2023-01-03T07:13:40.171Z,-0.50
2023-01-03T07:16:07.224Z,-0.52
2023-01-03T07:18:34.194Z,-0.52
2023-01-03T07:21:01.059Z,-0.50
2023-01-03T07:23:30.113Z,-0.50
2023-01-03T07:25:57.073Z,-0.51
2023-01-03T07:28:23.998Z,-0.49
2023-01-03T07:30:51.923Z,-0.52
2023-01-03T07:33:24.542Z,-0.53
2023-01-03T07:35:51.294Z,-0.49
2023-01-03T07:38:21.207Z,-0.50
2023-01-03T07:40:48.288Z,-0.48
2023-01-03T07:43:38.493Z,-0.50
2023-01-03T07:46:20.966Z,-0.54
2023-01-03T07:48:59.860Z,-0.46
2023-01-03T07:51:26.554Z,-0.42
2023-01-03T07:53:53.640Z,-0.42
2023-01-03T07:56:22.885Z,-0.43
2023-01-03T07:58:52.036Z,-0.45
2023-01-03T08:01:22.290Z,-0.49
2023-01-03T08:03:49.529Z,-0.54
2023-01-03T08:06:22.324Z,-0.56
2023-01-03T08:09:08.423Z,-0.58
2023-01-03T08:11:53.564Z,-0.60
2023-01-03T08:14:25.349Z,-0.55
2023-01-03T08:16:53.582Z,-0.47
2023-01-03T08:19:20.284Z,-0.51
2023-01-03T08:21:47.114Z,-0.55
2023-01-03T08:24:13.874Z,-0.60
2023-01-03T08:26:40.850Z,-0.67
2023-01-03T08:29:08.197Z,-0.74
2023-01-03T08:31:40.102Z,-0.81
2023-01-03T08:34:17.010Z,-0.94
2023-01-03T08:36:55.417Z,-1.07
2023-01-03T08:39:30.207Z,-1.16
2023-01-03T08:42:03.635Z,-1.26
2023-01-03T08:44:32.453Z,-1.35
2023-01-03T08:47:03.101Z,-1.40
2023-01-03T08:49:32.829Z,-1.39
2023-01-03T08:51:59.521Z,-1.42
2023-01-03T08:54:26.323Z,-1.45
2023-01-03T08:56:53.119Z,-1.48
2023-01-03T08:59:20.004Z,-1.56
2023-01-03T09:01:46.925Z,-1.62
2023-01-03T09:04:13.857Z,-1.67
2023-01-03T09:06:40.845Z,-1.63
2023-01-03T09:09:08.983Z,-1.58
2023-01-03T09:11:35.696Z,-1.51
2023-01-03T09:14:02.474Z,-1.52
2023-01-03T09:16:29.200Z,-1.60
2023-01-03T09:18:56.063Z,-1.73
2023-01-03T09:21:22.865Z,-1.84
2023-01-03T09:23:49.584Z,-1.88
2023-01-03T09:26:16.289Z,-1.93
2023-01-03T09:28:43.010Z,-1.99
2023-01-03T09:31:09.827Z,-2.04
2023-01-03T09:33:36.597Z,-2.09
2023-01-03T09:36:10.621Z,-2.19
2023-01-03T09:38:37.346Z,-2.26
2023-01-03T09:41:12.736Z,-2.31
2023-01-03T09:43:45.806Z,-2.36
2023-01-03T09:46:18.540Z,-2.45
2023-01-03T09:48:49.508Z,-2.51
2023-01-03T09:51:42.884Z,-2.55
2023-01-03T09:54:35.368Z,-2.59
2023-01-03T09:57:28.185Z,-2.63
2023-01-03T10:00:14.311Z,-2.69
2023-01-03T10:03:36.345Z,-2.73
2023-01-03T10:06:15.686Z,-2.71
2023-01-03T10:08:47.858Z,-2.69
2023-01-03T10:11:53.741Z,-2.72
2023-01-03T10:14:35.370Z,-2.72
2023-01-03T10:17:27.973Z,-2.74
2023-01-03T10:20:13.833Z,-2.77
2023-01-03T10:22:41.107Z,-2.80
2023-01-03T10:25:13.061Z,-2.81
2023-01-03T10:27:48.172Z,-2.83
2023-01-03T10:30:27.085Z,-2.83
2023-01-03T10:32:53.779Z,-2.87
2023-01-03T10:35:25.283Z,-2.89
2023-01-03T10:37:53.886Z,-2.90
2023-01-03T10:40:20.899Z,-2.91
2023-01-03T10:42:50.460Z,-2.93
2023-01-03T10:45:20.537Z,-2.97
2023-01-03T10:48:01.398Z,-2.97
2023-01-03T10:50:29.790Z,-3.01
2023-01-03T10:53:05.816Z,-3.01
2023-01-03T10:55:35.127Z,-3.01
2023-01-03T10:58:04.537Z,-3.04
2023-01-03T11:00:38.433Z,-3.04
2023-01-03T11:03:17.621Z,-3.05
2023-01-03T11:05:47.518Z,-3.06
2023-01-03T11:08:23.628Z,-3.06
2023-01-03T11:10:50.287Z,-3.00
2023-01-03T11:13:39.404Z,-2.98
2023-01-03T11:16:19.004Z,-2.98
2023-01-03T11:19:00.757Z,-2.98
2023-01-03T11:22:02.684Z,-3.00
2023-01-03T11:24:54.339Z,-3.01
2023-01-03T11:27:44.774Z,-3.00
2023-01-03T11:30:26.033Z,-3.00
2023-01-03T11:33:00.289Z,-3.01
2023-01-03T11:35:34.652Z,-3.00
2023-01-03T11:38:46.778Z,-3.00
2023-01-03T11:41:32.059Z,-3.01
2023-01-03T11:44:29.642Z,-3.01
2023-01-03T11:47:16.491Z,-3.00
2023-01-03T11:49:43.096Z,-2.99
2023-01-03T11:52:28.081Z,-2.98
2023-01-03T11:55:16.161Z,-2.98
2023-01-03T11:58:02.474Z,-2.95
2023-01-03T12:00:46.848Z,-2.96
2023-01-03T12:03:48.017Z,-2.94
2023-01-03T12:06:29.170Z,-2.95
2023-01-03T12:09:25.609Z,-2.93
2023-01-03T12:11:55.162Z,-2.90
2023-01-03T12:14:35.457Z,-2.87
2023-01-03T12:17:07.776Z,-2.89
2023-01-03T12:19:43.593Z,-2.91
2023-01-03T12:22:26.237Z,-2.88
2023-01-03T12:25:16.035Z,-2.90
2023-01-03T12:28:07.167Z,-2.90
2023-01-03T12:30:42.609Z,-2.89
2023-01-03T12:33:25.041Z,-2.92
2023-01-03T12:36:00.420Z,-2.91
2023-01-03T12:38:35.588Z,-2.92
2023-01-03T12:41:13.885Z,-2.92
2023-01-03T12:43:56.004Z,-2.94
2023-01-03T12:46:28.866Z,-2.96
2023-01-03T12:49:16.863Z,-2.95
2023-01-03T12:51:43.830Z,-2.95
2023-01-03T12:54:35.340Z,-2.93
2023-01-03T12:57:08.228Z,-2.92
2023-01-03T13:00:00.131Z,-2.90
2023-01-03T13:02:44.360Z,-2.89
2023-01-03T13:05:45.413Z,-2.90
2023-01-03T13:08:33.411Z,-2.89
2023-01-03T13:11:06.991Z,-2.90
2023-01-03T13:13:35.202Z,-2.90
2023-01-03T13:16:48.927Z,-2.89
2023-01-03T13:19:21.838Z,-2.89
2023-01-03T13:21:54.456Z,-2.89
2023-01-03T13:24:44.598Z,-2.87
2023-01-03T13:27:17.341Z,-2.86
2023-01-03T13:29:49.706Z,-2.86
2023-01-03T13:32:22.362Z,-2.87
2023-01-03T13:34:58.293Z,-2.86
2023-01-03T13:37:29.293Z,-2.87
2023-01-03T13:40:02.616Z,-2.89
2023-01-03T13:42:36.904Z,-2.88
2023-01-03T13:45:15.560Z,-2.89
2023-01-03T13:47:50.388Z,-2.90
2023-01-03T13:50:22.184Z,-2.91
2023-01-03T13:53:05.924Z,-2.92
2023-01-03T13:56:11.433Z,-2.94
2023-01-03T13:58:43.434Z,-2.96
2023-01-03T14:01:45.592Z,-2.96
2023-01-03T14:04:31.013Z,-2.96
2023-01-03T14:07:45.717Z,-2.98
2023-01-03T14:10:46.667Z,-3.01
2023-01-03T14:13:22.215Z,-3.00
2023-01-03T14:15:49.770Z,-3.02
2023-01-03T14:18:27.755Z,-3.03
2023-01-03T14:20:57.869Z,-3.04
2023-01-03T14:26:16.883Z,-3.06
2023-01-03T14:28:49.337Z,-3.07
2023-01-03T14:31:21.257Z,-3.07
2023-01-03T14:33:54.683Z,-3.06
2023-01-03T14:36:22.238Z,-3.07
2023-01-03T14:38:54.697Z,-3.07
2023-01-03T14:41:32.410Z,-3.07
2023-01-03T14:44:21.236Z,-3.05
2023-01-03T14:46:55.116Z,-3.03
2023-01-03T14:49:47.446Z,-2.98
2023-01-03T14:52:19.426Z,-2.96
2023-01-03T14:54:49.663Z,-2.95
2023-01-03T14:57:19.319Z,-2.92
2023-01-03T14:59:47.217Z,-2.89
2023-01-03T15:02:14.346Z,-2.87
2023-01-03T15:04:49.494Z,-2.86
2023-01-03T15:07:43.330Z,-2.85
2023-01-03T15:10:12.761Z,-2.84
2023-01-03T15:12:42.948Z,-2.83
2023-01-03T15:15:09.753Z,-2.80
2023-01-03T15:17:37.855Z,-2.76
2023-01-03T15:20:08.472Z,-2.74
2023-01-03T15:22:40.779Z,-2.72
2023-01-03T15:25:20.308Z,-2.70
2023-01-03T15:27:49.621Z,-2.70
2023-01-03T15:30:20.754Z,-2.69
2023-01-03T15:33:20.076Z,-2.67
2023-01-03T15:35:50.084Z,-2.66
2023-01-03T15:38:29.696Z,-2.66
2023-01-03T15:40:56.620Z,-2.67
2023-01-03T15:43:33.309Z,-2.69
2023-01-03T15:46:04.222Z,-2.67
2023-01-03T15:48:35.501Z,-2.67
2023-01-03T15:51:04.300Z,-2.66
2023-01-03T15:53:43.172Z,-2.67
2023-01-03T15:56:22.352Z,-2.67
2023-01-03T15:58:52.030Z,-2.70
2023-01-03T16:01:20.200Z,-2.70
2023-01-03T16:03:48.477Z,-2.70
2023-01-03T16:06:16.554Z,-2.70
2023-01-03T16:08:44.001Z,-2.69
2023-01-03T16:11:33.474Z,-2.66
2023-01-03T16:14:04.848Z,-2.64
2023-01-03T16:16:35.314Z,-2.62
2023-01-03T16:19:04.248Z,-2.57
2023-01-03T16:21:31.491Z,-2.57
2023-01-03T16:23:58.542Z,-2.54
2023-01-03T16:26:25.949Z,-2.53
2023-01-03T16:28:52.753Z,-2.52
2023-01-03T16:31:29.645Z,-2.50
2023-01-03T16:33:56.606Z,-2.51
2023-01-03T16:36:30.944Z,-2.48
2023-01-03T16:38:58.355Z,-2.47
2023-01-03T16:41:25.284Z,-2.46
2023-01-03T16:43:52.804Z,-2.45
2023-01-03T16:46:22.509Z,-2.42
2023-01-03T16:48:53.021Z,-2.43
2023-01-03T16:51:24.673Z,-2.44
2023-01-03T16:53:52.468Z,-2.45
2023-01-03T16:56:19.197Z,-2.45
2023-01-03T16:58:45.969Z,-2.44
2023-01-03T17:01:13.892Z,-2.44
2023-01-03T17:03:42.278Z,-2.44
2023-01-03T17:06:35.071Z,-2.43
2023-01-03T17:09:28.098Z,-2.44
2023-01-03T17:11:54.830Z,-2.48
2023-01-03T17:14:22.795Z,-2.47
2023-01-03T17:16:50.876Z,-2.51
2023-01-03T17:20:02.656Z,-2.55
2023-01-03T17:22:14.865Z,-2.59
2023-01-03T17:24:41.949Z,-2.62
2023-01-03T17:27:32.009Z,-2.62
2023-01-03T17:30:03.324Z,-2.60
2023-01-03T17:32:30.811Z,-2.61
2023-01-03T17:34:57.821Z,-2.62
2023-01-03T17:37:25.468Z,-2.65
2023-01-03T17:39:57.353Z,-2.66
2023-01-03T17:42:26.640Z,-2.71
2023-01-03T17:45:12.456Z,-2.71
2023-01-03T17:48:00.309Z,-2.73
2023-01-03T17:50:29.688Z,-2.76
2023-01-03T17:52:56.840Z,-2.80
2023-01-03T17:55:26.484Z,-2.82
2023-01-03T17:57:54.680Z,-2.82
2023-01-03T18:00:24.852Z,-2.84
2023-01-03T18:02:52.541Z,-2.88
2023-01-03T18:05:27.070Z,-2.91
2023-01-03T18:07:57.507Z,-2.94
2023-01-03T18:10:41.750Z,-2.97
2023-01-03T18:13:26.381Z,-3.01
2023-01-03T18:15:54.452Z,-3.03
2023-01-03T18:18:23.862Z,-3.08
2023-01-03T18:20:51.312Z,-3.08
2023-01-03T18:23:30.430Z,-3.10
2023-01-03T18:25:59.985Z,-3.12
2023-01-03T18:28:27.951Z,-3.14
2023-01-03T18:30:55.875Z,-3.12
2023-01-03T18:33:23.323Z,-3.11
2023-01-03T18:35:50.636Z,-3.13
2023-01-03T18:38:24.097Z,-3.16
2023-01-03T18:40:51.156Z,-3.21
2023-01-03T18:43:19.488Z,-3.27
2023-01-03T18:45:46.315Z,-3.29
2023-01-03T18:48:18.485Z,-3.36
2023-01-03T18:50:53.830Z,-3.41
2023-01-03T18:53:28.772Z,-3.48
2023-01-03T18:55:55.622Z,-3.51
2023-01-03T18:58:35.587Z,-3.56
2023-01-03T19:01:03.056Z,-3.60
2023-01-03T19:03:32.629Z,-3.62
2023-01-03T19:06:03.258Z,-3.65
2023-01-03T19:08:33.164Z,-3.67
2023-01-03T19:11:06.257Z,-3.70
2023-01-03T19:13:54.872Z,-3.75
2023-01-03T19:16:28.150Z,-3.74
2023-01-03T19:18:55.067Z,-3.76
2023-01-03T19:21:23.396Z,-3.77
2023-01-03T19:24:19.524Z,-3.77
2023-01-03T19:27:01.087Z,-3.80
2023-01-03T19:29:36.773Z,-3.80
2023-01-03T19:32:19.145Z,-3.82
2023-01-03T19:34:46.027Z,-3.85
2023-01-03T19:37:12.856Z,-3.86
2023-01-03T19:39:39.883Z,-3.87
2023-01-03T19:42:30.417Z,-3.88
2023-01-03T19:44:59.271Z,-3.88
2023-01-03T19:47:25.996Z,-3.91
2023-01-03T19:49:52.719Z,-3.92
2023-01-03T19:52:19.381Z,-3.94
2023-01-03T19:54:46.048Z,-3.96
2023-01-03T19:57:30.186Z,-3.98
2023-01-03T19:59:59.498Z,-4.01
2023-01-03T20:02:32.206Z,-4.01
2023-01-03T20:04:59.579Z,-4.03
2023-01-03T20:07:26.431Z,-4.06
2023-01-03T20:09:53.106Z,-4.06
2023-01-03T20:12:25.297Z,-4.04
2023-01-03T20:14:54.919Z,-4.03
2023-01-03T20:17:24.558Z,-4.04
2023-01-03T20:19:51.993Z,-4.03
2023-01-03T20:22:53.461Z,-4.05
2023-01-03T20:25:27.113Z,-4.01
2023-01-03T20:27:55.156Z,-3.95
2023-01-03T20:30:25.699Z,-3.93
2023-01-03T20:32:52.941Z,-3.94
2023-01-03T20:36:08.762Z,-3.93
2023-01-03T20:38:11.563Z,-3.95
2023-01-03T20:40:39.270Z,-3.96
2023-01-03T20:43:06.039Z,-3.98
2023-01-03T20:45:33.410Z,-4.01
2023-01-03T20:48:00.394Z,-4.00
2023-01-03T20:50:29.368Z,-4.00
2023-01-03T20:52:58.140Z,-4.00
2023-01-03T20:55:26.951Z,-4.02
2023-01-03T20:57:53.996Z,-4.03
2023-01-03T21:00:30.189Z,-4.03
2023-01-03T21:02:57.038Z,-4.03
2023-01-03T21:05:23.979Z,-4.04
2023-01-03T21:08:09.953Z,-4.03
2023-01-03T21:10:39.101Z,-4.03
2023-01-03T21:13:06.377Z,-4.05
2023-01-03T21:15:33.517Z,-4.05
2023-01-03T21:18:00.257Z,-4.05
2023-01-03T21:20:28.879Z,-4.01
2023-01-03T21:22:55.734Z,-3.97
2023-01-03T21:25:25.398Z,-3.96
2023-01-03T21:27:52.185Z,-3.95
2023-01-03T21:30:20.513Z,-3.96
2023-01-03T21:32:48.019Z,-3.93
2023-01-03T21:35:20.564Z,-3.92
2023-01-03T21:37:47.936Z,-3.90
2023-01-03T21:40:26.261Z,-3.90
2023-01-03T21:43:04.309Z,-3.91
2023-01-03T21:45:44.981Z,-3.90
2023-01-03T21:48:14.174Z,-3.91
2023-01-03T21:50:47.004Z,-3.96
2023-01-03T21:53:16.192Z,-4.03
2023-01-03T21:55:43.336Z,-4.12
2023-01-03T21:58:18.463Z,-4.20
2023-01-03T22:00:47.932Z,-4.25
2023-01-03T22:03:34.956Z,-4.28
2023-01-03T22:06:13.774Z,-4.26
2023-01-03T22:08:41.007Z,-4.26
2023-01-03T22:11:08.312Z,-4.28
2023-01-03T22:13:35.942Z,-4.27
2023-01-03T22:16:05.169Z,-4.26
2023-01-03T22:18:32.144Z,-4.23
2023-01-03T22:21:07.311Z,-4.20
2023-01-03T22:23:34.655Z,-4.18
2023-01-03T22:26:13.562Z,-4.17
2023-01-03T22:28:49.562Z,-4.17
2023-01-03T22:31:18.851Z,-4.19
2023-01-03T22:33:47.734Z,-4.19
2023-01-03T22:36:15.805Z,-4.19
2023-01-03T22:38:43.031Z,-4.22
2023-01-03T22:41:15.992Z,-4.28
2023-01-03T22:43:43.784Z,-4.31
2023-01-03T22:46:18.055Z,-4.37
2023-01-03T22:48:45.205Z,-4.39
2023-01-03T22:51:13.949Z,-4.39
2023-01-03T22:53:45.940Z,-4.40
2023-01-03T22:56:17.697Z,-4.42
2023-01-03T22:58:51.409Z,-4.42
2023-01-03T23:01:22.760Z,-4.41
2023-01-03T23:03:49.751Z,-4.48
2023-01-03T23:06:25.444Z,-4.48
2023-01-03T23:08:52.116Z,-4.46
2023-01-03T23:11:40.726Z,-4.43
2023-01-03T23:14:16.676Z,-4.41
2023-01-03T23:16:43.622Z,-4.39
2023-01-03T23:19:19.964Z,-4.38
2023-01-03T23:21:50.322Z,-4.36
2023-01-03T23:24:23.996Z,-4.36
2023-01-03T23:26:51.935Z,-4.35
2023-01-03T23:29:18.841Z,-4.36
2023-01-03T23:31:45.701Z,-4.34
2023-01-03T23:34:12.803Z,-4.33
2023-01-03T23:36:39.890Z,-4.34
2023-01-03T23:39:06.585Z,-4.40
2023-01-03T23:41:34.591Z,-4.48
2023-01-03T23:44:01.315Z,-4.52
2023-01-03T23:46:28.044Z,-4.56
2023-01-03T23:48:57.015Z,-4.57
2023-01-03T23:51:24.655Z,-4.59
2023-01-03T23:53:51.693Z,-4.61
2023-01-03T23:56:21.365Z,-4.64
2023-01-03T23:58:48.311Z,-4.69
